sensor_id;sensor_type;location;lat;lon;timestamp;temperature;humidity
49042;DHT22;34859;51.608;11.462;2024-03-06T12:24:05;8.40;99.90
49042;DHT22;34859;51.608;11.462;2024-03-06T12:27:03;8.20;99.90
49042;DHT22;34859;51.608;11.462;2024-03-06T12:29:52;8.20;99.90
49042;DHT22;34859;51.608;11.462;2024-03-06T12:32:41;8.20;99.90
49042;DHT22;34859;51.608;11.462;2024-03-06T12:35:27;8.40;99.90
49042;DHT22;34859;51.608;11.462;2024-03-06T12:38:14;8.50;99.90
49042;DHT22;34859;51.608;11.462;2024-03-06T12:41:01;8.50;99.90
49042;DHT22;34859;51.608;11.462;2024-03-06T12:43:47;8.20;99.90
49042;DHT22;34859;51.608;11.462;2024-03-06T12:46:33;8.10;99.90
49042;DHT22;34859;51.608;11.462;2024-03-06T12:49:18;8.20;99.90
49042;DHT22;34859;51.608;11.462;2024-03-06T12:52:04;8.50;99.90
49042;DHT22;34859;51.608;11.462;2024-03-06T12:54:50;8.80;99.90
49042;DHT22;34859;51.608;11.462;2024-03-06T12:57:36;9.00;99.90
49042;DHT22;34859;51.608;11.462;2024-03-06T13:00:22;8.90;99.90
49042;DHT22;34859;51.608;11.462;2024-03-06T13:03:08;8.50;99.90
49042;DHT22;34859;51.608;11.462;2024-03-06T13:05:54;8.20;99.90
49042;DHT22;34859;51.608;11.462;2024-03-06T13:08:41;8.00;99.90
49042;DHT22;34859;51.608;11.462;2024-03-06T13:11:27;8.00;99.90
49042;DHT22;34859;51.608;11.462;2024-03-06T13:14:13;8.10;99.90
49042;DHT22;34859;51.608;11.462;2024-03-06T13:17:00;8.30;99.90
49042;DHT22;34859;51.608;11.462;2024-03-06T13:19:46;8.50;99.90
49042;DHT22;34859;51.608;11.462;2024-03-06T13:22:32;8.80;99.90
49042;DHT22;34859;51.608;11.462;2024-03-06T13:25:18;9.00;99.90
49042;DHT22;34859;51.608;11.462;2024-03-06T13:28:05;9.00;99.90
49042;DHT22;34859;51.608;11.462;2024-03-06T13:30:51;8.90;99.90
49042;DHT22;34859;51.608;11.462;2024-03-06T13:33:37;8.60;99.90
49042;DHT22;34859;51.608;11.462;2024-03-06T13:36:22;8.20;99.90
49042;DHT22;34859;51.608;11.462;2024-03-06T13:39:09;8.00;99.90
49042;DHT22;34859;51.608;11.462;2024-03-06T13:41:54;8.20;99.90
49042;DHT22;34859;51.608;11.462;2024-03-06T13:44:40;8.30;99.90
49042;DHT22;34859;51.608;11.462;2024-03-06T13:47:26;8.50;99.90
49042;DHT22;34859;51.608;11.462;2024-03-06T13:50:14;8.60;99.90
49042;DHT22;34859;51.608;11.462;2024-03-06T13:53:00;8.40;99.90
49042;DHT22;34859;51.608;11.462;2024-03-06T13:55:46;8.20;99.90
49042;DHT22;34859;51.608;11.462;2024-03-06T13:58:32;8.00;99.90
49042;DHT22;34859;51.608;11.462;2024-03-06T14:01:18;8.10;99.90
49042;DHT22;34859;51.608;11.462;2024-03-06T14:04:04;8.30;99.90
49042;DHT22;34859;51.608;11.462;2024-03-06T14:06:50;8.50;99.90
49042;DHT22;34859;51.608;11.462;2024-03-06T14:09:36;8.70;99.90
49042;DHT22;34859;51.608;11.462;2024-03-06T14:12:23;8.70;99.90
49042;DHT22;34859;51.608;11.462;2024-03-06T14:15:09;8.60;99.90
49042;DHT22;34859;51.608;11.462;2024-03-06T14:17:58;8.60;99.90
49042;DHT22;34859;51.608;11.462;2024-03-06T14:20:44;8.40;99.90
49042;DHT22;34859;51.608;11.462;2024-03-06T14:23:30;8.20;99.90
49042;DHT22;34859;51.608;11.462;2024-03-06T14:26:17;8.10;99.90
49042;DHT22;34859;51.608;11.462;2024-03-06T14:29:05;8.20;99.90
49042;DHT22;34859;51.608;11.462;2024-03-06T14:31:52;8.30;99.90
49042;DHT22;34859;51.608;11.462;2024-03-06T14:34:38;8.30;99.90
49042;DHT22;34859;51.608;11.462;2024-03-06T14:37:24;8.30;99.90
49042;DHT22;34859;51.608;11.462;2024-03-06T14:40:10;8.20;99.90
49042;DHT22;34859;51.608;11.462;2024-03-06T14:42:56;8.00;99.90
49042;DHT22;34859;51.608;11.462;2024-03-06T14:45:45;8.10;99.90
49042;DHT22;34859;51.608;11.462;2024-03-06T14:48:32;8.10;99.90
49042;DHT22;34859;51.608;11.462;2024-03-06T14:51:18;8.20;99.90
49042;DHT22;34859;51.608;11.462;2024-03-06T14:54:03;8.20;99.90
49042;DHT22;34859;51.608;11.462;2024-03-06T14:56:49;8.10;99.90
49042;DHT22;34859;51.608;11.462;2024-03-06T14:59:35;7.90;99.90
49042;DHT22;34859;51.608;11.462;2024-03-06T15:02:21;7.90;99.90
49042;DHT22;34859;51.608;11.462;2024-03-06T15:05:07;7.90;99.90
49042;DHT22;34859;51.608;11.462;2024-03-06T15:07:53;7.90;99.90
49042;DHT22;34859;51.608;11.462;2024-03-06T15:10:39;7.90;99.90
49042;DHT22;34859;51.608;11.462;2024-03-06T15:13:25;7.90;99.90
49042;DHT22;34859;51.608;11.462;2024-03-06T15:16:11;7.90;99.90
49042;DHT22;34859;51.608;11.462;2024-03-06T15:18:57;7.90;99.90
49042;DHT22;34859;51.608;11.462;2024-03-06T15:21:43;7.90;99.90
49042;DHT22;34859;51.608;11.462;2024-03-06T15:24:29;7.90;99.90
49042;DHT22;34859;51.608;11.462;2024-03-06T15:27:16;7.90;99.90
49042;DHT22;34859;51.608;11.462;2024-03-06T15:30:07;7.90;99.90
49042;DHT22;34859;51.608;11.462;2024-03-06T15:32:56;7.80;99.90
49042;DHT22;34859;51.608;11.462;2024-03-06T15:35:42;7.70;99.90
49042;DHT22;34859;51.608;11.462;2024-03-06T15:38:28;7.50;99.90
49042;DHT22;34859;51.608;11.462;2024-03-06T15:41:14;7.40;99.90
49042;DHT22;34859;51.608;11.462;2024-03-06T15:44:00;7.40;99.90
49042;DHT22;34859;51.608;11.462;2024-03-06T15:46:46;7.40;99.90
49042;DHT22;34859;51.608;11.462;2024-03-06T15:49:32;7.50;99.90
49042;DHT22;34859;51.608;11.462;2024-03-06T15:52:18;7.60;99.90
49042;DHT22;34859;51.608;11.462;2024-03-06T15:55:08;7.50;99.90
49042;DHT22;34859;51.608;11.462;2024-03-06T15:57:56;7.50;99.90
49042;DHT22;34859;51.608;11.462;2024-03-06T16:00:42;7.50;99.90
49042;DHT22;34859;51.608;11.462;2024-03-06T16:03:28;7.50;99.90
49042;DHT22;34859;51.608;11.462;2024-03-06T16:06:15;7.40;99.90
49042;DHT22;34859;51.608;11.462;2024-03-06T16:09:01;7.40;99.90
49042;DHT22;34859;51.608;11.462;2024-03-06T16:11:47;7.20;99.90
49042;DHT22;34859;51.608;11.462;2024-03-06T16:14:33;7.10;99.90
49042;DHT22;34859;51.608;11.462;2024-03-06T16:17:19;7.10;99.90
49042;DHT22;34859;51.608;11.462;2024-03-06T16:20:06;7.00;99.90
49042;DHT22;34859;51.608;11.462;2024-03-06T16:22:52;6.80;99.90
49042;DHT22;34859;51.608;11.462;2024-03-06T16:25:38;6.70;99.90
49042;DHT22;34859;51.608;11.462;2024-03-06T16:28:24;6.50;99.90
49042;DHT22;34859;51.608;11.462;2024-03-06T16:31:10;6.50;99.90
49042;DHT22;34859;51.608;11.462;2024-03-06T16:33:56;6.40;99.90
49042;DHT22;34859;51.608;11.462;2024-03-06T16:36:42;6.10;99.90
49042;DHT22;34859;51.608;11.462;2024-03-06T16:39:28;5.90;99.90
49042;DHT22;34859;51.608;11.462;2024-03-06T16:42:14;5.80;99.90
49042;DHT22;34859;51.608;11.462;2024-03-06T16:45:01;5.70;99.90
49042;DHT22;34859;51.608;11.462;2024-03-06T16:47:47;5.50;99.90
49042;DHT22;34859;51.608;11.462;2024-03-06T16:50:33;5.30;99.90
49042;DHT22;34859;51.608;11.462;2024-03-06T16:53:19;5.20;99.90
49042;DHT22;34859;51.608;11.462;2024-03-06T16:56:05;5.10;99.90
49042;DHT22;34859;51.608;11.462;2024-03-06T16:58:52;5.00;99.90
49042;DHT22;34859;51.608;11.462;2024-03-06T17:01:38;4.90;99.90
49042;DHT22;34859;51.608;11.462;2024-03-06T17:04:24;4.80;99.90
49042;DHT22;34859;51.608;11.462;2024-03-06T17:07:10;4.60;99.90
49042;DHT22;34859;51.608;11.462;2024-03-06T17:09:58;4.60;99.90
49042;DHT22;34859;51.608;11.462;2024-03-06T17:12:46;4.50;99.90
49042;DHT22;34859;51.608;11.462;2024-03-06T17:15:33;4.40;99.90
49042;DHT22;34859;51.608;11.462;2024-03-06T17:18:19;4.30;99.90
49042;DHT22;34859;51.608;11.462;2024-03-06T17:21:06;4.20;99.90
49042;DHT22;34859;51.608;11.462;2024-03-06T17:23:54;4.20;99.90
49042;DHT22;34859;51.608;11.462;2024-03-06T17:26:40;4.30;99.90
49042;DHT22;34859;51.608;11.462;2024-03-06T17:29:26;4.40;99.90
49042;DHT22;34859;51.608;11.462;2024-03-06T17:32:12;4.30;99.90
49042;DHT22;34859;51.608;11.462;2024-03-06T17:34:58;4.20;99.90
49042;DHT22;34859;51.608;11.462;2024-03-06T17:37:45;4.10;99.90
49042;DHT22;34859;51.608;11.462;2024-03-06T17:40:31;3.90;99.90
49042;DHT22;34859;51.608;11.462;2024-03-06T17:43:17;4.10;99.90
49042;DHT22;34859;51.608;11.462;2024-03-06T17:46:03;4.30;99.90
49042;DHT22;34859;51.608;11.462;2024-03-06T17:48:49;4.50;99.90
49042;DHT22;34859;51.608;11.462;2024-03-06T17:51:36;4.60;99.90
49042;DHT22;34859;51.608;11.462;2024-03-06T17:54:22;4.60;99.90
49042;DHT22;34859;51.608;11.462;2024-03-06T17:57:08;4.70;99.90
49042;DHT22;34859;51.608;11.462;2024-03-06T17:59:54;4.90;99.90
49042;DHT22;34859;51.608;11.462;2024-03-06T18:02:41;5.00;99.90
49042;DHT22;34859;51.608;11.462;2024-03-06T18:05:27;5.20;99.90
49042;DHT22;34859;51.608;11.462;2024-03-06T18:08:13;5.30;99.90
49042;DHT22;34859;51.608;11.462;2024-03-06T18:10:59;5.40;99.90
49042;DHT22;34859;51.608;11.462;2024-03-06T18:13:45;5.40;99.90
49042;DHT22;34859;51.608;11.462;2024-03-06T18:16:31;5.40;99.90
49042;DHT22;34859;51.608;11.462;2024-03-06T18:19:17;5.30;99.90
49042;DHT22;34859;51.608;11.462;2024-03-06T18:22:03;5.30;99.90
49042;DHT22;34859;51.608;11.462;2024-03-06T18:24:50;5.30;99.90
49042;DHT22;34859;51.608;11.462;2024-03-06T18:27:36;5.30;99.90
49042;DHT22;34859;51.608;11.462;2024-03-06T18:30:22;5.30;99.90
49042;DHT22;34859;51.608;11.462;2024-03-06T18:33:08;5.30;99.90
49042;DHT22;34859;51.608;11.462;2024-03-06T18:35:54;5.30;99.90
49042;DHT22;34859;51.608;11.462;2024-03-06T18:38:40;5.30;99.90
